createdAt,value
2023-01-04T00:11:53.114Z,8.53
2023-01-04T00:26:49.671Z,8.84
2023-01-04T00:42:01.814Z,8.88
2023-01-04T00:56:42.267Z,8.94
2023-01-04T01:11:38.550Z,8.92
2023-01-04T01:41:30.786Z,9.12
2023-01-04T01:56:27.310Z,9
2023-01-04T02:11:23.976Z,9.11
2023-01-04T02:26:20.266Z,9.25
2023-01-04T02:41:16.651Z,9.27
2023-01-04T02:56:12.825Z,9.39
2023-01-04T03:11:09.136Z,9.58
2023-01-04T03:26:05.716Z,9.69
2023-01-04T03:41:02.432Z,9.9
2023-01-04T03:55:58.231Z,9.82
2023-01-04T04:10:54.533Z,10.01
2023-01-04T04:25:50.991Z,10.21
2023-01-04T04:40:46.250Z,10.18
2023-01-04T04:55:42.854Z,10.24
2023-01-04T05:10:38.656Z,10.27
2023-01-04T05:25:34.794Z,10.33
2023-01-04T05:40:31.305Z,10.41
2023-01-04T06:25:19.952Z,10.18
2023-01-04T06:40:15.668Z,10.33
2023-01-04T06:55:12.142Z,10.56
2023-01-04T07:10:09.891Z,10.41
2023-01-04T07:25:04.532Z,10.37
2023-01-04T07:54:56.730Z,10.69
2023-01-04T08:09:53.265Z,10.82
2023-01-04T08:24:49.641Z,10.83
2023-01-04T08:39:49.143Z,10.85
2023-01-04T08:54:42.672Z,10.96
2023-01-04T09:09:39.291Z,11
2023-01-04T09:24:35.249Z,11.57
2023-01-04T09:39:31.764Z,11.93
2023-01-04T10:09:24.698Z,12.28
2023-01-04T10:24:21.407Z,12.36
2023-01-04T10:39:17.445Z,12.41
2023-01-04T10:54:14.024Z,12.53
2023-01-04T11:09:13.201Z,12.68
2023-01-04T11:24:30.797Z,12.78
2023-01-04T11:39:03.032Z,12.38
2023-01-04T11:53:58.582Z,12.38
2023-01-04T12:08:55.131Z,12.59
2023-01-04T12:23:51.200Z,12.89
2023-01-04T12:38:47.781Z,12.91
2023-01-04T13:08:40.328Z,13.04
2023-01-04T13:23:36.659Z,13.11
2023-01-04T13:38:32.643Z,12.98
2023-01-04T13:53:28.977Z,13.02
2023-01-04T14:08:25.164Z,13
2023-01-04T14:23:21.877Z,12.94
2023-01-04T14:38:18.115Z,12.87
2023-01-04T14:53:14.228Z,12.9
2023-01-04T15:08:10.769Z,12.93
2023-01-04T15:23:07.130Z,12.92
2023-01-04T15:38:06.377Z,12.91
2023-01-04T15:52:59.886Z,13.04
2023-01-04T16:07:56.076Z,12.91
2023-01-04T16:22:52.117Z,13.01
2023-01-04T16:37:48.637Z,12.96
2023-01-04T16:52:44.772Z,12.91
2023-01-04T17:07:41.175Z,12.89
2023-01-04T17:37:33.838Z,13.02
2023-01-04T17:52:31.448Z,13.48
2023-01-04T18:07:26.165Z,14.08
2023-01-04T18:22:23.006Z,14.05
2023-01-04T18:37:19.778Z,13.92
2023-01-04T18:52:15.702Z,13.75
2023-01-04T19:07:11.604Z,13.54
2023-01-04T19:22:07.841Z,13.64
2023-01-04T19:37:04.297Z,13.62
2023-01-04T19:52:00.417Z,13.69
2023-01-04T20:06:56.695Z,13.74
2023-01-04T20:21:53.018Z,13.79
2023-01-04T20:36:49.203Z,13.86
2023-01-04T20:51:45.324Z,13.73
2023-01-04T21:06:41.921Z,13.89
2023-01-04T21:21:38.002Z,13.83
2023-01-04T21:36:34.145Z,13.76
2023-01-04T21:51:30.788Z,13.53
2023-01-04T22:06:27.146Z,13.4
2023-01-04T22:21:23.462Z,13.18
2023-01-04T22:36:23.167Z,13.62
2023-01-04T22:51:15.912Z,13.56
2023-01-04T23:06:12.089Z,13.51
2023-01-04T23:21:08.536Z,13.13
2023-01-04T23:36:04.781Z,13.07
2023-01-04T23:51:00.987Z,12.57
